Harkers Island, NC (28531)

3:01 AM EDT on April 02, 2015 (GMT -0400)
Ward Creek dock | | Change Station
CLOSE
Current Station
Personal Weather Station
Location: Beaufort, NC
Elevation: 23 ft
Nearby Weather Stations
Active Advisory: Frost Advisory

Elev 23 ft 34.77 °N, 76.57 °W | Updated 11 minutes ago

Clear
Clear
46.9 °F
Feels Like 46 °F
N
3.2
Wind Variable Wind from NE

Today
High -- | Low -- °F
--% Chance of Precip.
Yesterday
High -- | Low -- °F
Precip. -- in
6:52 AM 7:28 PM
Waxing Gibbous, 96% visible
Pressure 30.30 in
Visibility 10.0 miles
Clouds Clear
Windchill 46 °F
Dew Point 36 °F
Humidity 66%
Rainfall 0.00 in
Snow Depth Not available.
UV 0 out of 12
Pollen 10.20 out of 12
Air Quality Not available.
Flu Activity Not available.
METAR KMRH 020558Z AUTO 08004KT 10SM CLR 10/02 A3030 RMK AO2 SLP261 T01000022 10100 20083 58001 TSNO

More Conditions Fewer Conditions

Pressure 30.30 in
Visibility 10.0 miles
Clouds Clear
Windchill 46 °F
Dew Point 36 °F
Humidity 66%
Rainfall 0.00 in
Snow Depth Not available.
UV 0 out of 12
Pollen 10.20 out of 12
Air Quality Not available.
Flu Activity Not available.
METAR KMRH 020558Z AUTO 08004KT 10SM CLR 10/02 A3030 RMK AO2 SLP261 T01000022 10100 20083 58001 TSNO

More Conditions Fewer Conditions

10-Day Weather Forecast

Almanac

Astronomy

Apr. 02, 2015 Rise Set
Actual Time
Civil Twilight
Nautical Twilight
Astronomical Twilight
Moon
Length of Visible Light
Length of Day
Tomorrow will be .
, % of the Moon is Illuminated

Today's Extremes

State Highs State Lows

Community

WunderPhotos

Upload Photos

1,810,204 photos uploaded!

WunderBlogs® & News

Nearby

Air Quality

  Air Quality AQ Index Pollutant
Not available.

Snow Depth

Station Depth Elevation

Earthquake Activity

City Distance Mag. Time & Date
Minimum magnitude displayed is 2.5.

Coastal Water Temperatures

Place Temperature

Stations

Nearby Weather Stations

Station Location Temp. Windchill Dew Point Humidity Wind Precip. Elev Updated Type
                   
Frost Advisory
Statement as of 3:33 PM EDT on April 01, 2015

... Frost advisory in effect from 4 am to 8 am EDT Thursday...

The National Weather Service in Newport/Morehead City has issued
a frost advisory... which is in effect from 4 am to 8 am EDT
Thursday.

* Temperatures... in the middle 30s.

* Timing... 4 am to 8 am.

Precautionary/preparedness actions...

A frost advisory means that frost is possible. Sensitive outdoor
plants may be killed if left uncovered.